createdAt,value
2022-08-22T00:01:17.068Z,101855.66
2022-08-22T00:03:16.151Z,101839.25
2022-08-22T00:03:57.496Z,101856.75
2022-08-22T00:06:32.564Z,101852.88
2022-08-22T00:09:11.709Z,101857.56
2022-08-22T00:11:54.303Z,101855.06
2022-08-22T00:14:31.676Z,101855.72
2022-08-22T00:17:06.761Z,101858.88
2022-08-22T00:19:47.868Z,101867.66
2022-08-22T00:22:21.337Z,101865.63
2022-08-22T00:24:57.688Z,101873.31
2022-08-22T00:27:33.590Z,101871.75
2022-08-22T00:30:10.210Z,101881.78
2022-08-22T00:32:44.368Z,101881.38
2022-08-22T00:35:21.472Z,101884.97
2022-08-22T00:38:02.699Z,101894.72
2022-08-22T00:40:46.289Z,101898.81
2022-08-22T00:43:43.580Z,101908.53
2022-08-22T00:46:33.750Z,101918.88
2022-08-22T00:49:24.387Z,101910.88
2022-08-22T00:52:33.237Z,101909.81
2022-08-22T00:55:35.054Z,101926.47
2022-08-22T00:58:52.523Z,101945.47
2022-08-22T01:01:31.195Z,101949.06
2022-08-22T01:04:31.579Z,101955.03
2022-08-22T01:07:14.680Z,101971.19
2022-08-22T01:09:58.698Z,101984.22
2022-08-22T01:12:49.163Z,101985.13
2022-08-22T01:15:24.634Z,101991.88
2022-08-22T01:18:17.315Z,101999.88
2022-08-22T01:21:20.850Z,102005.31
2022-08-22T01:24:30.375Z,102012.00
2022-08-22T01:27:49.032Z,102032.88
2022-08-22T01:30:37.828Z,102034.00
2022-08-22T01:33:44.673Z,102041.22
2022-08-22T01:36:50.379Z,102038.16
2022-08-22T01:39:47.434Z,102032.97
2022-08-22T01:42:47.349Z,102029.31
2022-08-22T01:45:39.675Z,102031.19
2022-08-22T01:48:16.018Z,102036.69
2022-08-22T01:50:49.117Z,102041.53
2022-08-22T01:53:26.511Z,102032.81
2022-08-22T01:56:04.281Z,102031.03
2022-08-22T01:58:36.523Z,102035.91
2022-08-22T02:01:20.216Z,102037.44
2022-08-22T02:04:01.468Z,102038.00
2022-08-22T02:06:41.722Z,102041.19
2022-08-22T02:09:23.222Z,102049.59
2022-08-22T02:11:55.779Z,102062.16
2022-08-22T02:14:41.579Z,102072.03
2022-08-22T02:17:18.805Z,102075.94
2022-08-22T02:19:56.255Z,102085.34
2022-08-22T02:22:36.847Z,102093.66
2022-08-22T02:25:20.797Z,102093.75
2022-08-22T02:27:57.483Z,102105.44
2022-08-22T02:30:32.278Z,102118.31
2022-08-22T02:33:08.652Z,102123.97
2022-08-22T02:35:43.494Z,102130.38
2022-08-22T02:38:29.003Z,102143.16
2022-08-22T02:41:09.646Z,102158.78
2022-08-22T02:43:44.895Z,102164.69
2022-08-22T02:46:24.133Z,102179.44
2022-08-22T02:49:04.082Z,102184.47
2022-08-22T02:51:42.005Z,102191.50
2022-08-22T02:54:24.850Z,102189.75
2022-08-22T02:57:02.024Z,102195.50
2022-08-22T02:59:36.628Z,102205.16
2022-08-22T03:02:28.292Z,102203.59
2022-08-22T03:05:00.911Z,102201.34
2022-08-22T03:07:42.660Z,102201.88
2022-08-22T03:10:20.749Z,102205.16
2022-08-22T03:13:00.281Z,102206.50
2022-08-22T03:15:35.486Z,102195.63
2022-08-22T03:18:08.044Z,102197.69
2022-08-22T03:20:46.782Z,102197.69
2022-08-22T03:23:30.809Z,102198.59
2022-08-22T03:26:07.827Z,102199.03
2022-08-22T03:28:59.264Z,102197.34
2022-08-22T03:31:30.643Z,102197.03
2022-08-22T03:34:22.431Z,102198.41
2022-08-22T03:37:04.389Z,102204.81
2022-08-22T03:39:58.701Z,102207.63
2022-08-22T03:43:01.285Z,102205.47
2022-08-22T03:46:22.483Z,102199.38
2022-08-22T03:49:09.475Z,102195.59
2022-08-22T03:52:00.832Z,102191.63
2022-08-22T03:55:03.294Z,102204.88
2022-08-22T03:58:07.011Z,102205.00
2022-08-22T04:01:10.914Z,102211.09
2022-08-22T04:04:25.568Z,102226.44
2022-08-22T04:07:28.192Z,102230.97
2022-08-22T04:10:28.512Z,102250.94
2022-08-22T04:13:32.893Z,102264.00
2022-08-22T04:16:21.190Z,102275.84
2022-08-22T04:19:09.735Z,102281.03
2022-08-22T04:22:11.936Z,102286.78
2022-08-22T04:24:57.004Z,102300.09
2022-08-22T04:27:30.347Z,102301.44
2022-08-22T04:30:06.240Z,102305.28
2022-08-22T04:32:40.313Z,102319.25
2022-08-22T04:35:14.538Z,102323.09
2022-08-22T04:37:51.001Z,102331.31
2022-08-22T04:40:27.663Z,102335.34
2022-08-22T04:43:03.521Z,102333.91
2022-08-22T04:45:37.095Z,102348.13
2022-08-22T04:48:11.349Z,102351.69
2022-08-22T04:50:45.042Z,102351.38
2022-08-22T04:53:24.623Z,102347.75
2022-08-22T04:56:07.130Z,102358.00
2022-08-22T04:58:47.832Z,102361.63
2022-08-22T05:01:20.097Z,102365.56
2022-08-22T05:03:57.380Z,102367.69
2022-08-22T05:06:29.691Z,102376.75
2022-08-22T05:09:03.597Z,102361.97
2022-08-22T05:11:35.027Z,102366.00
2022-08-22T05:14:08.665Z,102371.97
2022-08-22T05:16:41.275Z,102363.88
2022-08-22T05:19:22.995Z,102374.25
2022-08-22T05:21:56.460Z,102363.31
2022-08-22T05:24:32.958Z,102362.44
2022-08-22T05:27:11.249Z,102361.19
2022-08-22T05:29:41.866Z,102359.72
2022-08-22T05:32:18.708Z,102357.00
2022-08-22T05:34:52.268Z,102363.44
2022-08-22T05:37:25.224Z,102354.41
2022-08-22T05:39:59.912Z,102344.06
2022-08-22T05:42:34.027Z,102335.41
2022-08-22T05:45:12.292Z,102333.91
2022-08-22T05:47:43.981Z,102319.13
2022-08-22T05:50:18.396Z,102308.53
2022-08-22T05:53:01.084Z,102293.38
2022-08-22T05:55:33.102Z,102266.63
2022-08-22T05:58:19.327Z,102251.63
2022-08-22T06:00:55.058Z,102241.31
2022-08-22T06:03:32.167Z,102224.59
2022-08-22T06:06:09.426Z,102213.84
2022-08-22T06:08:42.557Z,102195.72
2022-08-22T06:11:33.788Z,102178.53
2022-08-22T06:14:14.343Z,102169.31
2022-08-22T06:16:50.406Z,102159.31
2022-08-22T06:19:21.102Z,102142.13
2022-08-22T06:21:56.343Z,102126.66
2022-08-22T06:24:28.348Z,102108.19
2022-08-22T06:27:03.791Z,102086.84
2022-08-22T06:29:38.099Z,102068.00
2022-08-22T06:32:13.770Z,102047.16
2022-08-22T06:34:46.080Z,102037.25
2022-08-22T06:37:21.546Z,102032.41
2022-08-22T06:39:53.603Z,102033.19
2022-08-22T06:42:26.008Z,102034.47
2022-08-22T06:44:59.895Z,102030.06
2022-08-22T06:47:32.734Z,102025.81
2022-08-22T06:50:06.369Z,102013.75
2022-08-22T06:52:53.567Z,102004.44
2022-08-22T06:55:24.050Z,101986.38
2022-08-22T06:57:57.578Z,101989.22
2022-08-22T07:00:28.435Z,101981.94
2022-08-22T07:03:04.722Z,101977.66
2022-08-22T07:05:38.891Z,101967.28
2022-08-22T07:08:12.222Z,101966.16
2022-08-22T07:10:41.989Z,101961.03
2022-08-22T07:13:16.663Z,101946.97
2022-08-22T07:15:54.047Z,101947.44
2022-08-22T07:18:27.500Z,101944.53
2022-08-22T07:20:59.345Z,101932.13
2022-08-22T07:23:35.464Z,101915.44
2022-08-22T07:26:18.464Z,101906.56
2022-08-22T07:28:58.475Z,101900.69
2022-08-22T07:31:37.120Z,101883.25
2022-08-22T07:34:25.619Z,101881.19
2022-08-22T07:37:00.381Z,101884.31
2022-08-22T07:39:36.392Z,101875.69
2022-08-22T07:42:15.500Z,101877.50
2022-08-22T07:45:07.025Z,101873.78
2022-08-22T07:47:50.206Z,101864.00
2022-08-22T07:50:25.124Z,101858.13
2022-08-22T07:52:59.039Z,101852.47
2022-08-22T07:55:29.287Z,101848.13
2022-08-22T07:58:01.348Z,101845.09
2022-08-22T08:00:34.361Z,101836.53
2022-08-22T08:03:07.025Z,101824.97
2022-08-22T08:05:38.410Z,101813.66
2022-08-22T08:08:15.525Z,101809.38
2022-08-22T08:10:46.599Z,101798.72
2022-08-22T08:13:21.853Z,101795.13
2022-08-22T08:15:52.175Z,101794.16
2022-08-22T08:18:25.878Z,101786.09
2022-08-22T08:20:58.645Z,101786.59
2022-08-22T08:23:31.426Z,101790.19
2022-08-22T08:26:08.231Z,101788.69
2022-08-22T08:28:41.468Z,101774.81
2022-08-22T08:31:20.512Z,101779.19
2022-08-22T08:33:52.834Z,101761.91
2022-08-22T08:36:46.220Z,101760.75
2022-08-22T08:39:24.930Z,101751.81
2022-08-22T08:42:29.500Z,101752.81
2022-08-22T08:45:28.966Z,101742.63
2022-08-22T08:48:27.381Z,101744.09
2022-08-22T08:51:18.272Z,101734.88
2022-08-22T08:54:15.777Z,101734.44
2022-08-22T08:56:54.388Z,101724.13
2022-08-22T08:59:45.969Z,101727.63
2022-08-22T09:05:52.125Z,101726.19
2022-08-22T09:08:55.642Z,101723.53
2022-08-22T09:11:51.971Z,101721.84
2022-08-22T09:14:34.396Z,101714.88
2022-08-22T09:17:27.605Z,101725.44
2022-08-22T09:20:19.330Z,101714.38
2022-08-22T09:23:24.164Z,101707.66
2022-08-22T09:25:59.773Z,101702.97
2022-08-22T09:28:35.399Z,101702.00
2022-08-22T09:31:16.805Z,101693.44
2022-08-22T09:33:59.288Z,101682.53
2022-08-22T09:36:36.788Z,101677.09
2022-08-22T09:39:15.882Z,101666.22
2022-08-22T09:40:16.672Z,101713.75
2022-08-22T09:41:56.243Z,101663.03
2022-08-22T09:44:39.684Z,101663.75
2022-08-22T09:47:24.500Z,101647.69
2022-08-22T09:50:05.591Z,101649.50
2022-08-22T09:52:58.889Z,101647.34
2022-08-22T09:55:42.162Z,101641.53
2022-08-22T09:58:23.637Z,101627.66
2022-08-22T10:00:58.113Z,101613.28
2022-08-22T10:03:34.427Z,101625.75
2022-08-22T10:06:15.419Z,101625.47
2022-08-22T10:08:50.738Z,101626.09
2022-08-22T10:11:26.821Z,101615.97
2022-08-22T10:14:04.448Z,101616.00
2022-08-22T10:17:03.637Z,101614.41
2022-08-22T10:19:38.140Z,101622.28
2022-08-22T10:22:30.339Z,101621.75
2022-08-22T10:25:21.413Z,101607.09
2022-08-22T10:28:14.963Z,101598.19
2022-08-22T10:30:54.705Z,101594.25
2022-08-22T10:33:29.487Z,101605.66
2022-08-22T10:36:11.682Z,101607.88
2022-08-22T10:38:48.667Z,101608.25
2022-08-22T10:41:28.987Z,101603.09
2022-08-22T10:44:04.479Z,101611.34
2022-08-22T10:46:38.917Z,101604.06
2022-08-22T10:49:19.813Z,101602.31
2022-08-22T10:51:58.300Z,101593.03
2022-08-22T10:54:49.008Z,101591.34
2022-08-22T10:57:33.994Z,101593.88
2022-08-22T11:00:12.647Z,101598.03
2022-08-22T11:02:53.497Z,101591.34
2022-08-22T11:05:32.765Z,101601.84
2022-08-22T11:08:23.827Z,101594.47
2022-08-22T11:11:09.054Z,101596.22
2022-08-22T11:13:45.068Z,101596.03
2022-08-22T11:16:27.479Z,101590.06
2022-08-22T11:19:15.235Z,101599.81
2022-08-22T11:21:52.004Z,101586.19
2022-08-22T11:24:55.777Z,101592.97
2022-08-22T11:27:39.721Z,101587.72
2022-08-22T11:30:18.532Z,101587.94
2022-08-22T11:33:11.626Z,101592.03
2022-08-22T11:35:49.987Z,101590.56
2022-08-22T11:38:32.720Z,101583.97
2022-08-22T11:41:07.533Z,101592.38
2022-08-22T11:43:48.466Z,101586.72
2022-08-22T11:46:29.289Z,101590.50
2022-08-22T11:49:14.298Z,101591.50
2022-08-22T11:51:59.865Z,101589.66
2022-08-22T11:54:42.069Z,101584.63
2022-08-22T11:57:14.377Z,101596.19
2022-08-22T12:00:10.197Z,101584.28
2022-08-22T12:02:49.116Z,101585.25
2022-08-22T12:05:26.481Z,101590.00
2022-08-22T12:08:02.633Z,101583.97
2022-08-22T12:10:35.683Z,101580.91
2022-08-22T12:13:09.268Z,101585.56
2022-08-22T12:15:47.671Z,101581.56
2022-08-22T12:18:43.236Z,101584.31
2022-08-22T12:21:36.737Z,101586.56
2022-08-22T12:24:25.099Z,101579.88
2022-08-22T12:27:11.596Z,101574.84
2022-08-22T12:29:46.076Z,101572.38
2022-08-22T12:32:49.236Z,101570.72
2022-08-22T12:35:31.891Z,101559.41
2022-08-22T12:38:29.142Z,101565.59
2022-08-22T12:41:34.810Z,101549.81
2022-08-22T12:44:20.969Z,101555.25
2022-08-22T12:47:07.045Z,101556.44
2022-08-22T12:50:07.435Z,101560.38
2022-08-22T12:52:55.778Z,101543.91
2022-08-22T12:55:46.815Z,101542.75
2022-08-22T12:58:33.076Z,101542.69
2022-08-22T13:01:07.360Z,101544.25
2022-08-22T13:03:43.249Z,101543.53
2022-08-22T13:06:48.837Z,101538.56
2022-08-22T13:09:30.591Z,101531.16
2022-08-22T13:12:05.112Z,101540.56
2022-08-22T13:14:37.019Z,101535.44
2022-08-22T13:17:24.574Z,101530.97
2022-08-22T13:20:09.616Z,101526.53
2022-08-22T13:22:45.485Z,101525.75
2022-08-22T13:25:26.724Z,101532.66
2022-08-22T13:27:59.195Z,101531.91
2022-08-22T13:30:37.725Z,101528.72
2022-08-22T13:33:10.295Z,101530.22
2022-08-22T13:35:52.348Z,101524.50
2022-08-22T13:38:26.032Z,101517.28
2022-08-22T13:40:59.200Z,101521.50
2022-08-22T13:43:32.282Z,101519.88
2022-08-22T13:46:03.168Z,101517.06
2022-08-22T13:48:47.298Z,101511.78
2022-08-22T13:51:27.376Z,101512.03
2022-08-22T13:54:10.928Z,101511.34
2022-08-22T13:56:50.399Z,101506.63
2022-08-22T13:59:49.682Z,101504.13
2022-08-22T14:02:30.902Z,101500.66
2022-08-22T14:05:05.263Z,101500.75
2022-08-22T14:07:39.133Z,101504.25
2022-08-22T14:10:15.019Z,101505.16
2022-08-22T14:13:07.188Z,101507.53
2022-08-22T14:15:45.929Z,101505.72
2022-08-22T14:18:21.263Z,101506.44
2022-08-22T14:21:19.988Z,101503.50
2022-08-22T14:23:53.161Z,101501.66
2022-08-22T14:26:33.211Z,101515.84
2022-08-22T14:29:13.268Z,101503.84
2022-08-22T14:31:42.267Z,101508.69
2022-08-22T14:34:14.569Z,101506.41
2022-08-22T14:37:03.076Z,101502.16
2022-08-22T14:39:40.991Z,101501.47
2022-08-22T14:42:18.682Z,101492.56
2022-08-22T14:45:00.791Z,101492.47
2022-08-22T14:47:55.590Z,101488.56
2022-08-22T14:50:40.466Z,101484.84
2022-08-22T14:53:13.170Z,101475.94
2022-08-22T14:55:43.176Z,101484.84
2022-08-22T14:58:26.497Z,101480.53
2022-08-22T15:00:58.801Z,101474.97
2022-08-22T15:03:32.227Z,101471.88
2022-08-22T15:06:07.268Z,101459.22
2022-08-22T15:08:42.289Z,101460.06
2022-08-22T15:11:25.558Z,101465.41
2022-08-22T15:14:01.422Z,101454.59
2022-08-22T15:16:35.417Z,101455.88
2022-08-22T15:19:24.027Z,101458.41
2022-08-22T15:22:04.761Z,101457.25
2022-08-22T15:24:34.421Z,101455.47
2022-08-22T15:27:06.737Z,101453.03
2022-08-22T15:29:48.107Z,101456.16
2022-08-22T15:32:22.315Z,101457.00
2022-08-22T15:34:52.525Z,101447.28
2022-08-22T15:37:33.725Z,101445.75
2022-08-22T15:40:12.525Z,101440.47
2022-08-22T15:42:45.292Z,101443.31
2022-08-22T15:45:22.879Z,101438.25
2022-08-22T15:47:54.973Z,101445.28
2022-08-22T15:50:34.729Z,101440.00
2022-08-22T15:53:14.800Z,101434.59
2022-08-22T15:56:23.980Z,101429.53
2022-08-22T15:59:10.477Z,101429.22
2022-08-22T16:01:44.758Z,101432.44
2022-08-22T16:04:34.473Z,101430.09
2022-08-22T16:07:19.779Z,101430.09
2022-08-22T16:09:51.774Z,101420.03
2022-08-22T16:12:32.841Z,101422.84
2022-08-22T16:15:05.141Z,101426.44
2022-08-22T16:17:45.172Z,101410.03
2022-08-22T16:20:53.547Z,101411.03
2022-08-22T16:23:23.505Z,101406.91
2022-08-22T16:26:15.321Z,101401.34
2022-08-22T16:28:58.337Z,101404.31
2022-08-22T16:31:32.705Z,101406.56
2022-08-22T16:34:23.646Z,101409.28
2022-08-22T16:37:14.660Z,101410.06
2022-08-22T16:39:47.998Z,101403.72
2022-08-22T16:42:27.796Z,101413.69
2022-08-22T16:45:12.925Z,101407.00
2022-08-22T16:47:52.876Z,101412.16
2022-08-22T16:50:33.817Z,101408.88
2022-08-22T16:53:10.074Z,101418.72
2022-08-22T16:55:49.483Z,101414.09
2022-08-22T16:58:56.904Z,101415.97
2022-08-22T17:01:55.256Z,101410.78
2022-08-22T17:04:33.834Z,101411.09
2022-08-22T17:07:16.081Z,101411.75
2022-08-22T17:10:08.959Z,101407.34
2022-08-22T17:12:58.719Z,101408.50
2022-08-22T17:15:35.298Z,101408.25
2022-08-22T17:18:27.273Z,101414.75
2022-08-22T17:21:07.106Z,101418.16
2022-08-22T17:23:46.853Z,101416.25
2022-08-22T17:26:21.205Z,101418.53
2022-08-22T17:29:04.608Z,101416.84
2022-08-22T17:31:40.265Z,101416.00
2022-08-22T17:34:28.851Z,101418.72
2022-08-22T17:37:08.146Z,101416.63
2022-08-22T17:40:10.461Z,101412.25
2022-08-22T17:42:51.152Z,101419.94
2022-08-22T17:45:32.190Z,101423.69
2022-08-22T17:48:07.196Z,101419.41
2022-08-22T17:50:43.796Z,101421.28
2022-08-22T17:53:25.373Z,101427.94
2022-08-22T17:56:01.675Z,101437.78
2022-08-22T17:58:43.428Z,101439.78
2022-08-22T18:01:16.993Z,101443.78
2022-08-22T18:03:53.727Z,101453.28
2022-08-22T18:06:27.021Z,101448.16
2022-08-22T18:09:15.228Z,101451.88
2022-08-22T18:11:51.195Z,101453.50
2022-08-22T18:14:31.022Z,101459.09
2022-08-22T18:17:01.841Z,101461.41
2022-08-22T18:19:46.179Z,101463.00
2022-08-22T18:22:23.493Z,101470.25
2022-08-22T18:24:58.895Z,101467.44
2022-08-22T18:27:34.802Z,101481.22
2022-08-22T18:30:15.492Z,101476.53
2022-08-22T18:32:52.961Z,101481.75
2022-08-22T18:35:28.845Z,101483.56
2022-08-22T18:38:19.555Z,101482.56
2022-08-22T18:40:53.325Z,101481.53
2022-08-22T18:43:30.504Z,101485.94
2022-08-22T18:46:05.431Z,101485.66
2022-08-22T18:48:59.347Z,101484.13
2022-08-22T18:51:38.261Z,101491.13
2022-08-22T18:54:32.890Z,101492.69
2022-08-22T18:57:09.270Z,101495.50
2022-08-22T18:59:48.204Z,101493.69
2022-08-22T19:02:55.731Z,101500.16
2022-08-22T19:05:50.196Z,101501.44
2022-08-22T19:08:37.007Z,101501.19
2022-08-22T19:11:21.993Z,101501.69
2022-08-22T19:14:19.461Z,101505.28
2022-08-22T19:17:06.638Z,101514.63
2022-08-22T19:20:03.797Z,101519.03
2022-08-22T19:22:35.969Z,101518.72
2022-08-22T19:25:21.743Z,101520.81
2022-08-22T19:28:23.501Z,101523.13
2022-08-22T19:31:16.494Z,101527.25
2022-08-22T19:33:49.773Z,101526.25
2022-08-22T19:36:33.341Z,101523.88
2022-08-22T19:39:08.903Z,101514.59
2022-08-22T19:41:41.361Z,101513.03
2022-08-22T19:44:12.616Z,101505.78
2022-08-22T19:46:43.062Z,101515.88
2022-08-22T19:49:30.380Z,101513.78
2022-08-22T19:52:11.887Z,101509.88
2022-08-22T19:54:47.585Z,101502.09
2022-08-22T19:57:25.146Z,101506.00
2022-08-22T20:00:00.904Z,101509.88
2022-08-22T20:02:37.537Z,101505.69
2022-08-22T20:05:33.810Z,101503.38
2022-08-22T20:08:22.494Z,101501.28
2022-08-22T20:11:07.866Z,101495.59
2022-08-22T20:13:38.608Z,101497.94
2022-08-22T20:16:19.369Z,101484.44
2022-08-22T20:19:14.389Z,101485.78
2022-08-22T20:21:59.876Z,101483.19
2022-08-22T20:24:39.950Z,101475.41
2022-08-22T20:27:15.932Z,101473.09
2022-08-22T20:29:51.286Z,101473.88
2022-08-22T20:32:23.373Z,101475.66
2022-08-22T20:34:57.009Z,101464.53
2022-08-22T20:38:05.889Z,101463.78
2022-08-22T20:40:55.325Z,101467.66
2022-08-22T20:43:28.322Z,101461.69
2022-08-22T20:46:13.008Z,101461.69
2022-08-22T20:48:45.677Z,101469.19
2022-08-22T20:51:18.489Z,101463.50
2022-08-22T20:53:54.807Z,101464.00
2022-08-22T20:56:34.874Z,101459.88
2022-08-22T20:59:17.429Z,101468.63
2022-08-22T21:01:49.372Z,101474.28
2022-08-22T21:04:22.583Z,101476.88
2022-08-22T21:07:00.026Z,101474.50
2022-08-22T21:09:48.080Z,101477.91
2022-08-22T21:12:16.611Z,101471.66
2022-08-22T21:14:47.080Z,101467.00
2022-08-22T21:17:26.051Z,101469.56
2022-08-22T21:19:57.745Z,101466.47
2022-08-22T21:22:28.493Z,101471.56
2022-08-22T21:25:00.316Z,101471.81
2022-08-22T21:27:31.673Z,101480.31
2022-08-22T21:30:02.811Z,101475.94
2022-08-22T21:32:34.795Z,101471.53
2022-08-22T21:35:05.109Z,101472.78
2022-08-22T21:37:39.869Z,101470.72
2022-08-22T21:40:18.703Z,101470.97
2022-08-22T21:43:00.140Z,101476.44
2022-08-22T21:45:31.800Z,101470.06
2022-08-22T21:48:01.887Z,101474.72
2022-08-22T21:50:38.036Z,101473.16
2022-08-22T21:53:10.228Z,101474.44
2022-08-22T21:55:44.522Z,101471.09
2022-08-22T21:58:35.962Z,101469.72
2022-08-22T22:01:28.339Z,101469.75
2022-08-22T22:03:58.429Z,101477.28
2022-08-22T22:06:28.578Z,101481.31
2022-08-22T22:08:58.061Z,101472.78
2022-08-22T22:11:28.001Z,101473.53
2022-08-22T22:13:56.574Z,101484.91
2022-08-22T22:16:28.139Z,101477.88
2022-08-22T22:18:57.198Z,101483.84
2022-08-22T22:21:25.782Z,101483.59
2022-08-22T22:23:54.524Z,101478.53
2022-08-22T22:26:28.820Z,101481.88
2022-08-22T22:28:59.124Z,101481.31
2022-08-22T22:31:28.296Z,101478.47
2022-08-22T22:33:56.839Z,101475.63
2022-08-22T22:36:27.696Z,101481.56
2022-08-22T22:38:56.618Z,101485.16
2022-08-22T22:41:25.834Z,101483.28
2022-08-22T22:43:56.794Z,101490.00
2022-08-22T22:46:26.883Z,101490.31
2022-08-22T22:48:55.565Z,101485.63
2022-08-22T22:51:24.595Z,101490.22
2022-08-22T22:53:53.183Z,101492.03
2022-08-22T22:56:24.038Z,101492.84
2022-08-22T22:58:59.222Z,101493.06
2022-08-22T23:01:34.261Z,101486.31
2022-08-22T23:04:05.481Z,101485.25
2022-08-22T23:06:35.463Z,101492.84
2022-08-22T23:09:04.173Z,101483.00
2022-08-22T23:11:33.140Z,101490.00
2022-08-22T23:14:03.226Z,101486.38
2022-08-22T23:16:37.247Z,101496.69
2022-08-22T23:19:09.292Z,101500.06
2022-08-22T23:21:38.293Z,101499.53
2022-08-22T23:24:11.371Z,101503.91
2022-08-22T23:26:42.386Z,101501.59
2022-08-22T23:29:12.522Z,101502.59
2022-08-22T23:31:44.964Z,101504.38
2022-08-22T23:34:16.571Z,101510.63
2022-08-22T23:36:47.945Z,101505.44
2022-08-22T23:39:17.624Z,101509.31
2022-08-22T23:41:47.133Z,101506.44
2022-08-22T23:44:18.293Z,101513.13
2022-08-22T23:46:49.068Z,101508.47
2022-08-22T23:49:18.197Z,101508.41
2022-08-22T23:51:47.963Z,101508.13
2022-08-22T23:54:16.887Z,101505.59
2022-08-22T23:56:49.032Z,101511.72
2022-08-22T23:59:19.855Z,101511.75
